Time,TemperatureF,DewpointF,PressureIn,WindDirection,WindDirectionDegrees,WindSpeedMPH,WindSpeedGustMPH,Humidity,HourlyPrecipIn,Conditions,Clouds,dailyrainin,SoftwareType,DateUTC
2013-10-03 00:14:00,66.0,-99.9,-100.00,SE,130,1.0,3.0,-999,-99.99,,,-99.99,,2013-10-03 04:14:00,
2013-10-03 00:24:00,66.0,-99.9,-100.00,SE,130,1.0,3.0,-999,-99.99,,,-99.99,,2013-10-03 04:24:00,
2013-10-03 00:34:00,66.0,-99.9,-100.00,SE,130,1.0,3.0,-999,-99.99,,,-99.99,,2013-10-03 04:34:00,
2013-10-03 00:40:00,65.0,-99.9,-100.00,SSE,160,1.0,2.0,-999,-99.99,,,-99.99,,2013-10-03 04:40:00,
2013-10-03 01:13:00,65.0,-99.9,-100.00,SSE,160,1.0,2.0,-999,-99.99,,,-99.99,,2013-10-03 05:13:00,
2013-10-03 01:23:00,65.0,-99.9,-100.00,SSE,160,1.0,2.0,-999,-99.99,,,-99.99,,2013-10-03 05:23:00,
2013-10-03 01:33:00,65.0,-99.9,-100.00,SSE,160,1.0,2.0,-999,-99.99,,,-99.99,,2013-10-03 05:33:00,
2013-10-03 01:40:00,63.0,-99.9,-100.00,North,0,0.0,6.0,-999,-99.99,,,-99.99,,2013-10-03 05:40:00,
2013-10-03 02:12:00,63.0,-99.9,-100.00,North,0,0.0,6.0,-999,-99.99,,,-99.99,,2013-10-03 06:12:00,
2013-10-03 02:22:00,63.0,-99.9,-100.00,North,0,0.0,6.0,-999,-99.99,,,-99.99,,2013-10-03 06:22:00,
2013-10-03 02:32:00,63.0,-99.9,-100.00,North,0,0.0,6.0,-999,-99.99,,,-99.99,,2013-10-03 06:32:00,
2013-10-03 02:40:00,63.0,-99.9,-100.00,South,180,1.0,3.0,-999,-99.99,,,-99.99,,2013-10-03 06:40:00,
2013-10-03 03:12:00,63.0,-99.9,-100.00,South,180,1.0,3.0,-999,-99.99,,,-99.99,,2013-10-03 07:12:00,
2013-10-03 03:22:00,63.0,-99.9,-100.00,South,180,1.0,3.0,-999,-99.99,,,-99.99,,2013-10-03 07:22:00,
2013-10-03 03:32:00,63.0,-99.9,-100.00,South,180,1.0,3.0,-999,-99.99,,,-99.99,,2013-10-03 07:32:00,
2013-10-03 03:40:00,64.0,-99.9,-100.00,ESE,120,1.0,2.0,-999,-99.99,,,-99.99,,2013-10-03 07:40:00,
2013-10-03 04:12:00,64.0,-99.9,-100.00,ESE,120,1.0,2.0,-999,-99.99,,,-99.99,,2013-10-03 08:12:00,
2013-10-03 04:23:00,64.0,-99.9,-100.00,ESE,120,1.0,2.0,-999,-99.99,,,-99.99,,2013-10-03 08:23:00,
2013-10-03 04:32:00,64.0,-99.9,-100.00,ESE,120,1.0,2.0,-999,-99.99,,,-99.99,,2013-10-03 08:32:00,
2013-10-03 04:40:00,63.0,-99.9,-100.00,North,0,0.0,1.0,-999,-99.99,,,-99.99,,2013-10-03 08:40:00,
2013-10-03 05:12:00,63.0,-99.9,-100.00,North,0,0.0,1.0,-999,-99.99,,,-99.99,,2013-10-03 09:12:00,
2013-10-03 05:22:00,63.0,-99.9,-100.00,North,0,0.0,1.0,-999,-99.99,,,-99.99,,2013-10-03 09:22:00,
2013-10-03 05:33:00,63.0,-99.9,-100.00,North,0,0.0,1.0,-999,-99.99,,,-99.99,,2013-10-03 09:33:00,
2013-10-03 05:40:00,62.0,-99.9,-100.00,SE,130,2.0,3.0,-999,-99.99,,,-99.99,,2013-10-03 09:40:00,
2013-10-03 06:13:00,62.0,-99.9,-100.00,SE,130,2.0,3.0,-999,-99.99,,,-99.99,,2013-10-03 10:13:00,
2013-10-03 06:23:00,62.0,-99.9,-100.00,SE,130,2.0,3.0,-999,-99.99,,,-99.99,,2013-10-03 10:23:00,
2013-10-03 06:33:00,62.0,-99.9,-100.00,SE,130,2.0,3.0,-999,-99.99,,,-99.99,,2013-10-03 10:33:00,
2013-10-03 06:40:00,60.0,-99.9,-100.00,SSE,160,2.0,3.0,-999,-99.99,,,-99.99,,2013-10-03 10:40:00,
2013-10-03 07:12:00,60.0,-99.9,-100.00,SSE,160,2.0,3.0,-999,-99.99,,,-99.99,,2013-10-03 11:12:00,
2013-10-03 07:23:00,60.0,-99.9,-100.00,SSE,160,2.0,3.0,-999,-99.99,,,-99.99,,2013-10-03 11:23:00,
2013-10-03 07:33:00,60.0,-99.9,-100.00,SSE,160,2.0,3.0,-999,-99.99,,,-99.99,,2013-10-03 11:33:00,
2013-10-03 07:40:00,59.0,-99.9,-100.00,South,180,3.0,5.0,-999,-99.99,,,-99.99,,2013-10-03 11:40:00,
2013-10-03 08:12:00,59.0,-99.9,-100.00,South,180,3.0,5.0,-999,-99.99,,,-99.99,,2013-10-03 12:12:00,
2013-10-03 08:22:00,59.0,-99.9,-100.00,South,180,3.0,5.0,-999,-99.99,,,-99.99,,2013-10-03 12:22:00,
2013-10-03 08:32:00,59.0,-99.9,-100.00,South,180,3.0,5.0,-999,-99.99,,,-99.99,,2013-10-03 12:32:00,
2013-10-03 08:40:00,64.0,-99.9,-100.00,North,0,0.0,1.0,-999,-99.99,,,-99.99,,2013-10-03 12:40:00,
2013-10-03 09:11:00,64.0,-99.9,-100.00,North,0,0.0,1.0,-999,-99.99,,,-99.99,,2013-10-03 13:11:00,
2013-10-03 09:22:00,64.0,-99.9,-100.00,North,0,0.0,1.0,-999,-99.99,,,-99.99,,2013-10-03 13:22:00,
2013-10-03 09:32:00,64.0,-99.9,-100.00,North,0,0.0,1.0,-999,-99.99,,,-99.99,,2013-10-03 13:32:00,
2013-10-03 09:40:00,74.0,-99.9,-100.00,North,0,0.0,0.0,-999,-99.99,,,-99.99,,2013-10-03 13:40:00,
2013-10-03 10:11:00,74.0,-99.9,-100.00,North,0,0.0,0.0,-999,-99.99,,,-99.99,,2013-10-03 14:11:00,
2013-10-03 10:22:00,74.0,-99.9,-100.00,North,0,0.0,0.0,-999,-99.99,,,-99.99,,2013-10-03 14:22:00,
2013-10-03 10:32:00,74.0,-99.9,-100.00,North,0,0.0,0.0,-999,-99.99,,,-99.99,,2013-10-03 14:32:00,
2013-10-03 10:40:00,73.0,-99.9,-100.00,WNW,300,5.0,8.0,-999,-99.99,,,-99.99,,2013-10-03 14:40:00,
2013-10-03 11:12:00,73.0,-99.9,-100.00,WNW,300,5.0,8.0,-999,-99.99,,,-99.99,,2013-10-03 15:12:00,
2013-10-03 11:22:00,73.0,-99.9,-100.00,WNW,300,5.0,8.0,-999,-99.99,,,-99.99,,2013-10-03 15:22:00,
2013-10-03 11:33:00,73.0,-99.9,-100.00,WNW,300,5.0,8.0,-999,-99.99,,,-99.99,,2013-10-03 15:33:00,
2013-10-03 11:40:00,75.0,-99.9,-100.00,NNW,340,5.0,6.0,-999,-99.99,,,-99.99,,2013-10-03 15:40:00,
2013-10-03 12:13:00,75.0,-99.9,-100.00,NNW,340,5.0,6.0,-999,-99.99,,,-99.99,,2013-10-03 16:13:00,
2013-10-03 12:23:00,75.0,-99.9,-100.00,NNW,340,5.0,6.0,-999,-99.99,,,-99.99,,2013-10-03 16:23:00,
2013-10-03 12:33:00,75.0,-99.9,-100.00,NNW,340,5.0,6.0,-999,-99.99,,,-99.99,,2013-10-03 16:33:00,
2013-10-03 12:40:00,77.0,-99.9,-100.00,NNW,330,3.0,5.0,-999,-99.99,,,-99.99,,2013-10-03 16:40:00,
2013-10-03 13:12:00,77.0,-99.9,-100.00,NNW,330,3.0,5.0,-999,-99.99,,,-99.99,,2013-10-03 17:12:00,
2013-10-03 13:22:00,77.0,-99.9,-100.00,NNW,330,3.0,5.0,-999,-99.99,,,-99.99,,2013-10-03 17:22:00,
2013-10-03 13:33:00,77.0,-99.9,-100.00,NNW,330,3.0,5.0,-999,-99.99,,,-99.99,,2013-10-03 17:33:00,
2013-10-03 13:40:00,80.0,-99.9,-100.00,NNE,20,2.0,5.0,-999,-99.99,,,-99.99,,2013-10-03 17:40:00,
2013-10-03 14:12:00,80.0,-99.9,-100.00,NNE,20,2.0,5.0,-999,-99.99,,,-99.99,,2013-10-03 18:12:00,
2013-10-03 14:22:00,80.0,-99.9,-100.00,NNE,20,2.0,5.0,-999,-99.99,,,-99.99,,2013-10-03 18:22:00,
2013-10-03 14:32:00,80.0,-99.9,-100.00,NNE,20,2.0,5.0,-999,-99.99,,,-99.99,,2013-10-03 18:32:00,
2013-10-03 14:40:00,85.0,-99.9,-100.00,North,0,0.0,3.0,-999,-99.99,,,-99.99,,2013-10-03 18:40:00,
2013-10-03 15:11:00,85.0,-99.9,-100.00,North,0,0.0,3.0,-999,-99.99,,,-99.99,,2013-10-03 19:11:00,
2013-10-03 15:22:00,85.0,-99.9,-100.00,North,0,0.0,3.0,-999,-99.99,,,-99.99,,2013-10-03 19:22:00,
2013-10-03 15:32:00,85.0,-99.9,-100.00,North,0,0.0,3.0,-999,-99.99,,,-99.99,,2013-10-03 19:32:00,
2013-10-03 15:40:00,81.0,-99.9,-100.00,NW,310,5.0,6.0,-999,-99.99,,,-99.99,,2013-10-03 19:40:00,
2013-10-03 16:12:00,81.0,-99.9,-100.00,NW,310,5.0,6.0,-999,-99.99,,,-99.99,,2013-10-03 20:12:00,
2013-10-03 16:22:00,81.0,-99.9,-100.00,NW,310,5.0,6.0,-999,-99.99,,,-99.99,,2013-10-03 20:22:00,
2013-10-03 16:32:00,81.0,-99.9,-100.00,NW,310,5.0,6.0,-999,-99.99,,,-99.99,,2013-10-03 20:32:00,
2013-10-03 16:40:00,82.0,-99.9,-100.00,NNW,330,5.0,7.0,-999,-99.99,,,-99.99,,2013-10-03 20:40:00,
2013-10-03 17:12:00,82.0,-99.9,-100.00,NNW,330,5.0,7.0,-999,-99.99,,,-99.99,,2013-10-03 21:12:00,
2013-10-03 17:22:00,82.0,-99.9,-100.00,NNW,330,5.0,7.0,-999,-99.99,,,-99.99,,2013-10-03 21:22:00,
2013-10-03 17:34:00,82.0,-99.9,-100.00,NNW,330,5.0,7.0,-999,-99.99,,,-99.99,,2013-10-03 21:34:00,
2013-10-03 17:40:00,82.0,-99.9,-100.00,NNW,330,5.0,6.0,-999,-99.99,,,-99.99,,2013-10-03 21:40:00,
2013-10-03 18:13:00,82.0,-99.9,-100.00,NNW,330,5.0,6.0,-999,-99.99,,,-99.99,,2013-10-03 22:13:00,
2013-10-03 18:23:00,82.0,-99.9,-100.00,NNW,330,5.0,6.0,-999,-99.99,,,-99.99,,2013-10-03 22:23:00,
2013-10-03 18:33:00,82.0,-99.9,-100.00,NNW,330,5.0,6.0,-999,-99.99,,,-99.99,,2013-10-03 22:33:00,
2013-10-03 18:40:00,81.0,-99.9,-100.00,NNW,330,2.0,3.0,-999,-99.99,,,-99.99,,2013-10-03 22:40:00,
2013-10-03 19:12:00,81.0,-99.9,-100.00,NNW,330,2.0,3.0,-999,-99.99,,,-99.99,,2013-10-03 23:12:00,
2013-10-03 19:22:00,81.0,-99.9,-100.00,NNW,330,2.0,3.0,-999,-99.99,,,-99.99,,2013-10-03 23:22:00,
2013-10-03 19:34:00,81.0,-99.9,-100.00,NNW,330,2.0,3.0,-999,-99.99,,,-99.99,,2013-10-03 23:34:00,
2013-10-03 19:40:00,74.0,-99.9,-100.00,SE,140,1.0,3.0,-999,-99.99,,,-99.99,,2013-10-03 23:40:00,
2013-10-03 20:12:00,74.0,-99.9,-100.00,SE,140,1.0,3.0,-999,-99.99,,,-99.99,,2013-10-04 00:12:00,
2013-10-03 20:22:00,74.0,-99.9,-100.00,SE,140,1.0,3.0,-999,-99.99,,,-99.99,,2013-10-04 00:22:00,
2013-10-03 20:32:00,74.0,-99.9,-100.00,SE,140,1.0,3.0,-999,-99.99,,,-99.99,,2013-10-04 00:32:00,
2013-10-03 20:40:00,74.0,-99.9,-100.00,North,0,0.0,1.0,-999,-99.99,,,-99.99,,2013-10-04 00:40:00,
2013-10-03 21:12:00,74.0,-99.9,-100.00,North,0,0.0,1.0,-999,-99.99,,,-99.99,,2013-10-04 01:12:00,
2013-10-03 21:22:00,74.0,-99.9,-100.00,North,0,0.0,1.0,-999,-99.99,,,-99.99,,2013-10-04 01:22:00,
2013-10-03 21:32:00,74.0,-99.9,-100.00,North,0,0.0,1.0,-999,-99.99,,,-99.99,,2013-10-04 01:32:00,
2013-10-03 21:40:00,68.0,-99.9,-100.00,SSE,160,1.0,3.0,-999,-99.99,,,-99.99,,2013-10-04 01:40:00,
2013-10-03 22:12:00,68.0,-99.9,-100.00,SSE,160,1.0,3.0,-999,-99.99,,,-99.99,,2013-10-04 02:12:00,
2013-10-03 22:22:00,68.0,-99.9,-100.00,SSE,160,1.0,3.0,-999,-99.99,,,-99.99,,2013-10-04 02:22:00,
2013-10-03 22:33:00,68.0,-99.9,-100.00,SSE,160,1.0,3.0,-999,-99.99,,,-99.99,,2013-10-04 02:33:00,
2013-10-03 22:40:00,67.0,-99.9,-100.00,South,180,1.0,2.0,-999,-99.99,,,-99.99,,2013-10-04 02:40:00,
2013-10-03 23:12:00,67.0,-99.9,-100.00,South,180,1.0,2.0,-999,-99.99,,,-99.99,,2013-10-04 03:12:00,
2013-10-03 23:22:00,67.0,-99.9,-100.00,South,180,1.0,2.0,-999,-99.99,,,-99.99,,2013-10-04 03:22:00,
2013-10-03 23:34:00,67.0,-99.9,-100.00,South,180,1.0,2.0,-999,-99.99,,,-99.99,,2013-10-04 03:34:00,
2013-10-03 23:40:00,67.0,-99.9,-100.00,North,0,0.0,2.0,-999,-99.99,,,-99.99,,2013-10-04 03:40:00,